Terminal Aerodrome Forecast
Issued by NWS Newport/Morehead City, NC

Home | Current Version | Previous Version | Text Only | Print | Product List | Glossary On
Versions: 1 2 3 4 5 6 7 8 9 10 11 12 13 14 15 16 17 18 19 20
000
FTUS42 KMHX 211700 RRA
TAFEWN
TAF
KEWN 211751Z 2118/2218 28003KT P6SM SCT050
     FM211900 28005KT P6SM VCTS SCT050CB
     FM220100 20003KT P6SM SCT050 BKN150=

USA.gov is the U.S. government's official web portal to all federal, state and local government web resources and services.